sensor_id;sensor_type;location;lat;lon;timestamp;temperature;humidity
3942;DHT22;1985;48.592;8.850;2023-02-17T00:00:07;8.40;82.40
3942;DHT22;1985;48.592;8.850;2023-02-17T00:02:36;8.50;82.60
3942;DHT22;1985;48.592;8.850;2023-02-17T00:05:03;8.50;82.70
3942;DHT22;1985;48.592;8.850;2023-02-17T00:07:33;8.50;82.70
3942;DHT22;1985;48.592;8.850;2023-02-17T00:09:59;8.50;82.80
3942;DHT22;1985;48.592;8.850;2023-02-17T00:12:25;8.60;82.80
3942;DHT22;1985;48.592;8.850;2023-02-17T00:14:52;8.50;82.90
3942;DHT22;1985;48.592;8.850;2023-02-17T00:17:18;8.60;82.80
3942;DHT22;1985;48.592;8.850;2023-02-17T00:19:43;8.60;83.10
3942;DHT22;1985;48.592;8.850;2023-02-17T00:22:09;8.60;83.50
3942;DHT22;1985;48.592;8.850;2023-02-17T00:24:39;8.70;83.90
3942;DHT22;1985;48.592;8.850;2023-02-17T00:27:05;8.70;83.20
3942;DHT22;1985;48.592;8.850;2023-02-17T00:29:32;8.70;83.10
3942;DHT22;1985;48.592;8.850;2023-02-17T00:31:57;8.70;82.90
3942;DHT22;1985;48.592;8.850;2023-02-17T00:34:23;8.70;83.00
3942;DHT22;1985;48.592;8.850;2023-02-17T00:36:49;8.50;84.00
3942;DHT22;1985;48.592;8.850;2023-02-17T00:39:16;8.50;83.90
3942;DHT22;1985;48.592;8.850;2023-02-17T00:41:42;8.30;84.20
3942;DHT22;1985;48.592;8.850;2023-02-17T00:44:15;8.20;84.50
3942;DHT22;1985;48.592;8.850;2023-02-17T00:46:41;8.10;85.30
3942;DHT22;1985;48.592;8.850;2023-02-17T00:49:07;8.00;85.60
3942;DHT22;1985;48.592;8.850;2023-02-17T00:51:33;8.00;86.20
3942;DHT22;1985;48.592;8.850;2023-02-17T00:53:58;7.90;87.70
3942;DHT22;1985;48.592;8.850;2023-02-17T00:56:24;7.90;88.20
3942;DHT22;1985;48.592;8.850;2023-02-17T00:58:49;7.80;89.30
3942;DHT22;1985;48.592;8.850;2023-02-17T01:01:15;7.70;90.10
3942;DHT22;1985;48.592;8.850;2023-02-17T01:03:40;7.70;90.40
3942;DHT22;1985;48.592;8.850;2023-02-17T01:06:09;7.70;90.50
3942;DHT22;1985;48.592;8.850;2023-02-17T01:08:35;7.70;90.40
3942;DHT22;1985;48.592;8.850;2023-02-17T01:11:01;7.80;90.00
3942;DHT22;1985;48.592;8.850;2023-02-17T01:13:26;7.80;89.80
3942;DHT22;1985;48.592;8.850;2023-02-17T01:15:52;7.90;90.00
3942;DHT22;1985;48.592;8.850;2023-02-17T01:18:20;8.00;89.70
3942;DHT22;1985;48.592;8.850;2023-02-17T01:20:47;8.00;89.40
3942;DHT22;1985;48.592;8.850;2023-02-17T01:23:13;8.00;90.10
3942;DHT22;1985;48.592;8.850;2023-02-17T01:25:41;7.80;90.80
3942;DHT22;1985;48.592;8.850;2023-02-17T01:28:11;7.90;91.00
3942;DHT22;1985;48.592;8.850;2023-02-17T01:30:38;8.00;90.80
3942;DHT22;1985;48.592;8.850;2023-02-17T01:33:04;8.00;90.70
3942;DHT22;1985;48.592;8.850;2023-02-17T01:35:29;8.10;90.70
3942;DHT22;1985;48.592;8.850;2023-02-17T01:37:55;8.00;90.70
3942;DHT22;1985;48.592;8.850;2023-02-17T01:40:22;8.00;91.10
3942;DHT22;1985;48.592;8.850;2023-02-17T01:42:47;8.10;90.80
3942;DHT22;1985;48.592;8.850;2023-02-17T01:50:14;8.20;90.60
3942;DHT22;1985;48.592;8.850;2023-02-17T01:52:41;8.10;90.50
3942;DHT22;1985;48.592;8.850;2023-02-17T01:55:11;8.00;90.70
3942;DHT22;1985;48.592;8.850;2023-02-17T01:57:39;7.90;91.00
3942;DHT22;1985;48.592;8.850;2023-02-17T02:00:07;7.90;91.10
3942;DHT22;1985;48.592;8.850;2023-02-17T02:02:34;7.90;91.30
3942;DHT22;1985;48.592;8.850;2023-02-17T02:05:00;7.90;91.30
3942;DHT22;1985;48.592;8.850;2023-02-17T02:07:31;7.70;91.40
3942;DHT22;1985;48.592;8.850;2023-02-17T02:09:58;7.60;91.90
3942;DHT22;1985;48.592;8.850;2023-02-17T02:12:29;7.50;91.80
3942;DHT22;1985;48.592;8.850;2023-02-17T02:14:58;7.50;91.90
3942;DHT22;1985;48.592;8.850;2023-02-17T02:31:57;7.40;92.80
3942;DHT22;1985;48.592;8.850;2023-02-17T02:34:46;7.50;92.70
3942;DHT22;1985;48.592;8.850;2023-02-17T02:37:18;7.50;92.80
3942;DHT22;1985;48.592;8.850;2023-02-17T02:39:47;7.50;92.70
3942;DHT22;1985;48.592;8.850;2023-02-17T02:42:21;7.50;92.80
3942;DHT22;1985;48.592;8.850;2023-02-17T02:44:47;7.50;92.90
3942;DHT22;1985;48.592;8.850;2023-02-17T02:47:41;7.50;92.90
3942;DHT22;1985;48.592;8.850;2023-02-17T02:50:09;7.60;93.00
3942;DHT22;1985;48.592;8.850;2023-02-17T02:58:09;6.80;93.70
3942;DHT22;1985;48.592;8.850;2023-02-17T03:00:46;6.80;94.30
3942;DHT22;1985;48.592;8.850;2023-02-17T03:05:58;7.00;94.20
3942;DHT22;1985;48.592;8.850;2023-02-17T03:08:38;7.10;94.30
3942;DHT22;1985;48.592;8.850;2023-02-17T03:11:05;7.10;94.10
3942;DHT22;1985;48.592;8.850;2023-02-17T03:13:33;7.10;94.50
3942;DHT22;1985;48.592;8.850;2023-02-17T03:16:02;7.20;94.40
3942;DHT22;1985;48.592;8.850;2023-02-17T03:18:31;7.20;94.30
3942;DHT22;1985;48.592;8.850;2023-02-17T03:21:03;7.20;94.50
3942;DHT22;1985;48.592;8.850;2023-02-17T03:23:30;7.20;94.70
3942;DHT22;1985;48.592;8.850;2023-02-17T03:25:56;7.20;94.80
3942;DHT22;1985;48.592;8.850;2023-02-17T03:28:23;7.20;95.00
3942;DHT22;1985;48.592;8.850;2023-02-17T03:30:49;7.30;94.90
3942;DHT22;1985;48.592;8.850;2023-02-17T03:33:14;7.30;94.80
3942;DHT22;1985;48.592;8.850;2023-02-17T03:35:40;7.40;94.70
3942;DHT22;1985;48.592;8.850;2023-02-17T03:38:05;7.40;94.60
3942;DHT22;1985;48.592;8.850;2023-02-17T03:40:31;7.40;94.30
3942;DHT22;1985;48.592;8.850;2023-02-17T03:42:57;7.40;94.40
3942;DHT22;1985;48.592;8.850;2023-02-17T03:45:22;7.20;94.80
3942;DHT22;1985;48.592;8.850;2023-02-17T03:47:48;7.10;95.20
3942;DHT22;1985;48.592;8.850;2023-02-17T03:50:14;7.10;95.40
3942;DHT22;1985;48.592;8.850;2023-02-17T03:52:39;7.20;95.50
3942;DHT22;1985;48.592;8.850;2023-02-17T03:55:05;7.20;95.40
3942;DHT22;1985;48.592;8.850;2023-02-17T03:57:30;7.30;95.20
3942;DHT22;1985;48.592;8.850;2023-02-17T03:59:57;7.30;95.10
3942;DHT22;1985;48.592;8.850;2023-02-17T04:02:23;7.30;95.10
3942;DHT22;1985;48.592;8.850;2023-02-17T04:04:48;7.30;95.00
3942;DHT22;1985;48.592;8.850;2023-02-17T04:07:14;7.20;95.50
3942;DHT22;1985;48.592;8.850;2023-02-17T04:09:40;7.20;96.40
3942;DHT22;1985;48.592;8.850;2023-02-17T04:12:05;7.30;96.70
3942;DHT22;1985;48.592;8.850;2023-02-17T04:14:31;7.40;97.00
3942;DHT22;1985;48.592;8.850;2023-02-17T04:16:57;7.50;97.10
3942;DHT22;1985;48.592;8.850;2023-02-17T04:19:22;7.70;97.00
3942;DHT22;1985;48.592;8.850;2023-02-17T04:21:48;7.80;96.80
3942;DHT22;1985;48.592;8.850;2023-02-17T04:24:13;7.90;96.50
3942;DHT22;1985;48.592;8.850;2023-02-17T04:26:39;7.90;96.20
3942;DHT22;1985;48.592;8.850;2023-02-17T04:29:05;7.90;95.40
3942;DHT22;1985;48.592;8.850;2023-02-17T04:31:30;7.70;95.40
3942;DHT22;1985;48.592;8.850;2023-02-17T04:33:56;7.60;95.50
3942;DHT22;1985;48.592;8.850;2023-02-17T04:36:22;7.50;97.20
3942;DHT22;1985;48.592;8.850;2023-02-17T04:38:47;7.60;98.20
3942;DHT22;1985;48.592;8.850;2023-02-17T04:41:13;7.90;99.80
3942;DHT22;1985;48.592;8.850;2023-02-17T04:43:39;8.40;99.20
3942;DHT22;1985;48.592;8.850;2023-02-17T04:46:04;8.70;98.80
3942;DHT22;1985;48.592;8.850;2023-02-17T04:48:30;8.80;98.60
3942;DHT22;1985;48.592;8.850;2023-02-17T04:50:56;8.80;98.60
3942;DHT22;1985;48.592;8.850;2023-02-17T04:53:21;8.90;98.60
3942;DHT22;1985;48.592;8.850;2023-02-17T04:55:48;8.90;98.50
3942;DHT22;1985;48.592;8.850;2023-02-17T04:58:19;8.90;98.60
3942;DHT22;1985;48.592;8.850;2023-02-17T05:00:48;8.90;98.70
3942;DHT22;1985;48.592;8.850;2023-02-17T05:03:15;8.80;98.80
3942;DHT22;1985;48.592;8.850;2023-02-17T05:05:41;8.90;99.10
3942;DHT22;1985;48.592;8.850;2023-02-17T05:08:06;8.90;99.30
3942;DHT22;1985;48.592;8.850;2023-02-17T05:10:32;8.90;99.50
3942;DHT22;1985;48.592;8.850;2023-02-17T05:12:58;8.90;99.70
3942;DHT22;1985;48.592;8.850;2023-02-17T05:15:24;8.90;99.90
3942;DHT22;1985;48.592;8.850;2023-02-17T05:17:49;8.90;99.90
3942;DHT22;1985;48.592;8.850;2023-02-17T05:20:15;8.80;99.90
3942;DHT22;1985;48.592;8.850;2023-02-17T05:22:41;8.80;99.90
3942;DHT22;1985;48.592;8.850;2023-02-17T05:25:07;8.80;99.90
3942;DHT22;1985;48.592;8.850;2023-02-17T05:27:32;8.90;99.90
3942;DHT22;1985;48.592;8.850;2023-02-17T05:29:58;8.90;99.90
3942;DHT22;1985;48.592;8.850;2023-02-17T05:32:23;8.90;99.90
3942;DHT22;1985;48.592;8.850;2023-02-17T05:34:49;8.90;99.90
3942;DHT22;1985;48.592;8.850;2023-02-17T05:37:15;8.90;99.90
3942;DHT22;1985;48.592;8.850;2023-02-17T05:39:41;8.90;99.90
3942;DHT22;1985;48.592;8.850;2023-02-17T05:42:07;8.90;99.90
3942;DHT22;1985;48.592;8.850;2023-02-17T05:44:32;8.90;99.90
3942;DHT22;1985;48.592;8.850;2023-02-17T05:46:58;9.00;99.90
3942;DHT22;1985;48.592;8.850;2023-02-17T05:49:23;9.00;99.90
3942;DHT22;1985;48.592;8.850;2023-02-17T05:51:49;9.00;99.90
3942;DHT22;1985;48.592;8.850;2023-02-17T05:54:14;9.00;99.90
3942;DHT22;1985;48.592;8.850;2023-02-17T05:56:40;9.00;99.90
3942;DHT22;1985;48.592;8.850;2023-02-17T05:59:06;9.00;99.90
3942;DHT22;1985;48.592;8.850;2023-02-17T06:01:31;9.00;99.90
3942;DHT22;1985;48.592;8.850;2023-02-17T06:03:57;9.00;99.90
3942;DHT22;1985;48.592;8.850;2023-02-17T06:06:23;9.00;99.90
3942;DHT22;1985;48.592;8.850;2023-02-17T06:08:48;9.00;99.90
3942;DHT22;1985;48.592;8.850;2023-02-17T06:11:14;9.10;99.90
3942;DHT22;1985;48.592;8.850;2023-02-17T06:13:40;9.10;99.90
3942;DHT22;1985;48.592;8.850;2023-02-17T06:16:05;9.00;99.90
3942;DHT22;1985;48.592;8.850;2023-02-17T06:18:31;9.00;99.90
3942;DHT22;1985;48.592;8.850;2023-02-17T06:20:57;9.10;99.90
3942;DHT22;1985;48.592;8.850;2023-02-17T06:23:24;9.10;99.90
3942;DHT22;1985;48.592;8.850;2023-02-17T06:25:50;9.10;99.90
3942;DHT22;1985;48.592;8.850;2023-02-17T06:28:16;9.10;99.90
3942;DHT22;1985;48.592;8.850;2023-02-17T06:30:41;9.10;99.90
3942;DHT22;1985;48.592;8.850;2023-02-17T06:33:07;9.20;99.90
3942;DHT22;1985;48.592;8.850;2023-02-17T06:35:33;9.20;99.90
3942;DHT22;1985;48.592;8.850;2023-02-17T06:37:58;9.20;99.90
3942;DHT22;1985;48.592;8.850;2023-02-17T06:40:24;9.20;99.90
3942;DHT22;1985;48.592;8.850;2023-02-17T06:42:50;9.30;99.90
3942;DHT22;1985;48.592;8.850;2023-02-17T06:45:15;9.20;99.90
3942;DHT22;1985;48.592;8.850;2023-02-17T06:47:41;9.20;99.90
3942;DHT22;1985;48.592;8.850;2023-02-17T06:50:07;9.20;99.90
3942;DHT22;1985;48.592;8.850;2023-02-17T06:52:34;9.30;99.90
3942;DHT22;1985;48.592;8.850;2023-02-17T06:54:59;9.30;99.90
3942;DHT22;1985;48.592;8.850;2023-02-17T06:57:25;9.30;99.90
3942;DHT22;1985;48.592;8.850;2023-02-17T06:59:50;9.30;99.90
3942;DHT22;1985;48.592;8.850;2023-02-17T07:02:17;9.20;99.90
3942;DHT22;1985;48.592;8.850;2023-02-17T07:04:42;9.20;99.90
3942;DHT22;1985;48.592;8.850;2023-02-17T07:07:09;9.20;99.90
3942;DHT22;1985;48.592;8.850;2023-02-17T07:09:35;9.20;99.90
3942;DHT22;1985;48.592;8.850;2023-02-17T07:12:01;9.20;99.90
3942;DHT22;1985;48.592;8.850;2023-02-17T07:14:27;9.20;99.90
3942;DHT22;1985;48.592;8.850;2023-02-17T07:16:53;9.30;99.90
3942;DHT22;1985;48.592;8.850;2023-02-17T07:19:19;9.30;99.90
3942;DHT22;1985;48.592;8.850;2023-02-17T07:21:45;9.30;99.90
3942;DHT22;1985;48.592;8.850;2023-02-17T07:24:11;9.30;99.90
3942;DHT22;1985;48.592;8.850;2023-02-17T07:26:38;9.30;99.90
3942;DHT22;1985;48.592;8.850;2023-02-17T07:29:04;9.30;99.90
3942;DHT22;1985;48.592;8.850;2023-02-17T07:31:31;9.30;99.90
3942;DHT22;1985;48.592;8.850;2023-02-17T07:33:57;9.30;99.90
3942;DHT22;1985;48.592;8.850;2023-02-17T07:36:22;9.30;99.90
3942;DHT22;1985;48.592;8.850;2023-02-17T07:38:48;9.30;99.90
3942;DHT22;1985;48.592;8.850;2023-02-17T07:41:16;9.20;99.90
3942;DHT22;1985;48.592;8.850;2023-02-17T07:43:42;9.20;99.90
3942;DHT22;1985;48.592;8.850;2023-02-17T07:46:09;9.20;99.90
3942;DHT22;1985;48.592;8.850;2023-02-17T07:48:35;9.20;99.90
3942;DHT22;1985;48.592;8.850;2023-02-17T07:51:11;9.30;99.90
3942;DHT22;1985;48.592;8.850;2023-02-17T07:53:37;9.30;99.90
3942;DHT22;1985;48.592;8.850;2023-02-17T07:56:07;9.30;99.90
3942;DHT22;1985;48.592;8.850;2023-02-17T07:58:35;9.40;99.90
3942;DHT22;1985;48.592;8.850;2023-02-17T08:01:08;9.50;99.90
3942;DHT22;1985;48.592;8.850;2023-02-17T08:03:34;9.60;99.90
3942;DHT22;1985;48.592;8.850;2023-02-17T08:06:00;9.60;99.90
3942;DHT22;1985;48.592;8.850;2023-02-17T08:08:26;9.70;99.90
3942;DHT22;1985;48.592;8.850;2023-02-17T08:11:15;9.70;99.90
3942;DHT22;1985;48.592;8.850;2023-02-17T08:13:59;9.70;99.90
3942;DHT22;1985;48.592;8.850;2023-02-17T08:16:25;9.70;99.90
3942;DHT22;1985;48.592;8.850;2023-02-17T08:18:52;9.70;99.90
3942;DHT22;1985;48.592;8.850;2023-02-17T08:21:23;9.80;99.90
3942;DHT22;1985;48.592;8.850;2023-02-17T08:23:49;9.80;99.90
3942;DHT22;1985;48.592;8.850;2023-02-17T08:26:14;9.80;99.90
3942;DHT22;1985;48.592;8.850;2023-02-17T08:28:40;9.80;99.90
3942;DHT22;1985;48.592;8.850;2023-02-17T08:31:13;9.90;99.90
3942;DHT22;1985;48.592;8.850;2023-02-17T08:33:39;10.00;99.90
3942;DHT22;1985;48.592;8.850;2023-02-17T08:36:06;10.10;99.90
3942;DHT22;1985;48.592;8.850;2023-02-17T08:38:33;10.10;99.90
3942;DHT22;1985;48.592;8.850;2023-02-17T08:40:59;10.20;99.90
3942;DHT22;1985;48.592;8.850;2023-02-17T08:43:24;10.20;99.90
3942;DHT22;1985;48.592;8.850;2023-02-17T08:45:50;10.30;99.90
3942;DHT22;1985;48.592;8.850;2023-02-17T08:48:16;10.30;99.90
3942;DHT22;1985;48.592;8.850;2023-02-17T08:50:41;10.30;99.90
3942;DHT22;1985;48.592;8.850;2023-02-17T08:53:07;10.30;99.90
3942;DHT22;1985;48.592;8.850;2023-02-17T08:55:34;10.30;99.90
3942;DHT22;1985;48.592;8.850;2023-02-17T08:57:59;10.30;99.90
3942;DHT22;1985;48.592;8.850;2023-02-17T09:00:25;10.30;99.90
3942;DHT22;1985;48.592;8.850;2023-02-17T09:02:51;10.30;99.90
3942;DHT22;1985;48.592;8.850;2023-02-17T09:05:17;10.30;99.90
3942;DHT22;1985;48.592;8.850;2023-02-17T09:07:42;10.10;99.90
3942;DHT22;1985;48.592;8.850;2023-02-17T09:10:09;10.10;99.90
3942;DHT22;1985;48.592;8.850;2023-02-17T09:12:35;10.20;99.90
3942;DHT22;1985;48.592;8.850;2023-02-17T09:15:01;10.20;99.90
3942;DHT22;1985;48.592;8.850;2023-02-17T09:17:27;10.10;99.90
3942;DHT22;1985;48.592;8.850;2023-02-17T09:19:52;10.10;99.90
3942;DHT22;1985;48.592;8.850;2023-02-17T09:22:18;10.00;99.90
3942;DHT22;1985;48.592;8.850;2023-02-17T09:24:45;10.00;99.90
3942;DHT22;1985;48.592;8.850;2023-02-17T09:27:11;10.00;99.90
3942;DHT22;1985;48.592;8.850;2023-02-17T09:29:37;10.10;99.90
3942;DHT22;1985;48.592;8.850;2023-02-17T09:32:07;10.20;99.90
3942;DHT22;1985;48.592;8.850;2023-02-17T09:34:38;10.30;99.90
3942;DHT22;1985;48.592;8.850;2023-02-17T09:37:09;10.50;99.90
3942;DHT22;1985;48.592;8.850;2023-02-17T09:39:34;10.50;99.90
3942;DHT22;1985;48.592;8.850;2023-02-17T09:42:00;10.50;99.90
3942;DHT22;1985;48.592;8.850;2023-02-17T09:44:37;10.50;99.90
3942;DHT22;1985;48.592;8.850;2023-02-17T09:47:23;10.50;99.90
3942;DHT22;1985;48.592;8.850;2023-02-17T09:49:55;10.60;99.90
3942;DHT22;1985;48.592;8.850;2023-02-17T09:55:40;10.70;99.90
3942;DHT22;1985;48.592;8.850;2023-02-17T09:58:37;10.90;99.90
3942;DHT22;1985;48.592;8.850;2023-02-17T10:01:08;10.90;99.90
3942;DHT22;1985;48.592;8.850;2023-02-17T10:03:39;11.00;99.90
3942;DHT22;1985;48.592;8.850;2023-02-17T10:08:40;10.90;99.90
3942;DHT22;1985;48.592;8.850;2023-02-17T10:14:15;11.10;99.90
3942;DHT22;1985;48.592;8.850;2023-02-17T10:16:50;11.50;99.90
3942;DHT22;1985;48.592;8.850;2023-02-17T10:19:35;11.50;99.90
3942;DHT22;1985;48.592;8.850;2023-02-17T10:22:11;11.60;99.90
3942;DHT22;1985;48.592;8.850;2023-02-17T10:24:38;11.60;99.90
3942;DHT22;1985;48.592;8.850;2023-02-17T10:32:23;12.10;99.90
3942;DHT22;1985;48.592;8.850;2023-02-17T10:35:12;12.30;99.90
3942;DHT22;1985;48.592;8.850;2023-02-17T10:37:47;11.80;99.90
3942;DHT22;1985;48.592;8.850;2023-02-17T10:40:25;11.70;99.90
3942;DHT22;1985;48.592;8.850;2023-02-17T10:42:55;12.20;99.90
3942;DHT22;1985;48.592;8.850;2023-02-17T10:45:35;12.40;99.90
3942;DHT22;1985;48.592;8.850;2023-02-17T10:48:11;12.70;99.90
3942;DHT22;1985;48.592;8.850;2023-02-17T10:50:40;12.70;99.90
3942;DHT22;1985;48.592;8.850;2023-02-17T10:53:30;12.80;99.90
3942;DHT22;1985;48.592;8.850;2023-02-17T10:56:05;12.50;99.90
3942;DHT22;1985;48.592;8.850;2023-02-17T11:01:11;13.20;99.90
3942;DHT22;1985;48.592;8.850;2023-02-17T11:03:38;12.80;99.90
3942;DHT22;1985;48.592;8.850;2023-02-17T11:06:20;12.70;99.90
3942;DHT22;1985;48.592;8.850;2023-02-17T11:08:53;12.40;99.90
3942;DHT22;1985;48.592;8.850;2023-02-17T11:11:24;12.20;99.90
3942;DHT22;1985;48.592;8.850;2023-02-17T11:14:16;12.30;99.90
3942;DHT22;1985;48.592;8.850;2023-02-17T11:16:56;12.80;99.90
3942;DHT22;1985;48.592;8.850;2023-02-17T11:19:31;13.00;99.90
3942;DHT22;1985;48.592;8.850;2023-02-17T11:22:00;12.90;99.90
3942;DHT22;1985;48.592;8.850;2023-02-17T11:24:29;12.80;99.90
3942;DHT22;1985;48.592;8.850;2023-02-17T11:26:56;12.80;99.90
3942;DHT22;1985;48.592;8.850;2023-02-17T11:29:22;12.90;99.90
3942;DHT22;1985;48.592;8.850;2023-02-17T11:32:06;13.00;99.90
3942;DHT22;1985;48.592;8.850;2023-02-17T11:34:36;13.10;99.90
3942;DHT22;1985;48.592;8.850;2023-02-17T11:37:05;12.80;99.90
3942;DHT22;1985;48.592;8.850;2023-02-17T11:39:45;12.70;99.90
3942;DHT22;1985;48.592;8.850;2023-02-17T11:42:27;12.40;99.90
3942;DHT22;1985;48.592;8.850;2023-02-17T11:44:56;12.50;99.90
3942;DHT22;1985;48.592;8.850;2023-02-17T11:47:41;12.40;99.90
3942;DHT22;1985;48.592;8.850;2023-02-17T11:56:17;12.30;99.90
3942;DHT22;1985;48.592;8.850;2023-02-17T12:04:25;12.60;99.90
3942;DHT22;1985;48.592;8.850;2023-02-17T12:10:15;12.60;99.90
3942;DHT22;1985;48.592;8.850;2023-02-17T12:16:12;12.90;99.90
3942;DHT22;1985;48.592;8.850;2023-02-17T12:18:51;13.10;99.90
3942;DHT22;1985;48.592;8.850;2023-02-17T12:24:13;13.00;99.90
3942;DHT22;1985;48.592;8.850;2023-02-17T12:35:47;12.80;99.90
3942;DHT22;1985;48.592;8.850;2023-02-17T12:38:11;12.70;99.90
3942;DHT22;1985;48.592;8.850;2023-02-17T12:40:46;12.90;99.90
3942;DHT22;1985;48.592;8.850;2023-02-17T12:43:43;12.70;99.90
3942;DHT22;1985;48.592;8.850;2023-02-17T12:46:14;12.90;99.90
3942;DHT22;1985;48.592;8.850;2023-02-17T12:48:50;12.70;99.90
3942;DHT22;1985;48.592;8.850;2023-02-17T12:51:26;12.80;99.90
3942;DHT22;1985;48.592;8.850;2023-02-17T12:54:02;13.00;99.90
3942;DHT22;1985;48.592;8.850;2023-02-17T13:04:25;12.90;99.90
3942;DHT22;1985;48.592;8.850;2023-02-17T13:06:58;12.90;99.90
3942;DHT22;1985;48.592;8.850;2023-02-17T13:09:40;13.10;99.90
3942;DHT22;1985;48.592;8.850;2023-02-17T13:22:41;12.90;99.90
3942;DHT22;1985;48.592;8.850;2023-02-17T13:25:11;12.90;99.90
3942;DHT22;1985;48.592;8.850;2023-02-17T13:27:38;12.80;99.90
3942;DHT22;1985;48.592;8.850;2023-02-17T13:30:27;12.80;99.90
3942;DHT22;1985;48.592;8.850;2023-02-17T13:35:44;12.60;99.90
3942;DHT22;1985;48.592;8.850;2023-02-17T13:38:10;12.70;99.90
3942;DHT22;1985;48.592;8.850;2023-02-17T13:40:41;12.60;99.90
3942;DHT22;1985;48.592;8.850;2023-02-17T13:43:15;12.50;99.90
3942;DHT22;1985;48.592;8.850;2023-02-17T13:45:47;12.60;99.90
3942;DHT22;1985;48.592;8.850;2023-02-17T13:50:56;13.00;99.90
3942;DHT22;1985;48.592;8.850;2023-02-17T13:53:24;13.00;99.90
3942;DHT22;1985;48.592;8.850;2023-02-17T13:55:50;13.00;99.90
3942;DHT22;1985;48.592;8.850;2023-02-17T13:58:28;13.00;99.90
3942;DHT22;1985;48.592;8.850;2023-02-17T14:00:56;13.00;99.90
3942;DHT22;1985;48.592;8.850;2023-02-17T14:05:57;13.30;99.90
3942;DHT22;1985;48.592;8.850;2023-02-17T14:13:31;13.10;99.90
3942;DHT22;1985;48.592;8.850;2023-02-17T14:15:58;13.00;99.90
3942;DHT22;1985;48.592;8.850;2023-02-17T14:18:36;12.80;99.90
3942;DHT22;1985;48.592;8.850;2023-02-17T14:21:09;12.80;99.90
3942;DHT22;1985;48.592;8.850;2023-02-17T14:23:43;12.70;99.90
3942;DHT22;1985;48.592;8.850;2023-02-17T14:26:12;12.70;99.90
3942;DHT22;1985;48.592;8.850;2023-02-17T14:28:38;12.60;99.90
3942;DHT22;1985;48.592;8.850;2023-02-17T14:31:09;12.60;99.90
3942;DHT22;1985;48.592;8.850;2023-02-17T14:33:35;12.50;99.90
3942;DHT22;1985;48.592;8.850;2023-02-17T14:36:03;12.40;99.90
3942;DHT22;1985;48.592;8.850;2023-02-17T14:38:35;12.30;99.90
3942;DHT22;1985;48.592;8.850;2023-02-17T14:41:06;12.20;99.90
3942;DHT22;1985;48.592;8.850;2023-02-17T14:43:34;12.10;99.90
3942;DHT22;1985;48.592;8.850;2023-02-17T14:46:00;12.20;99.90
3942;DHT22;1985;48.592;8.850;2023-02-17T14:48:26;12.20;99.90
3942;DHT22;1985;48.592;8.850;2023-02-17T14:50:52;12.20;99.90
3942;DHT22;1985;48.592;8.850;2023-02-17T14:53:32;12.30;99.90
3942;DHT22;1985;48.592;8.850;2023-02-17T14:56:22;12.40;99.90
3942;DHT22;1985;48.592;8.850;2023-02-17T14:58:48;12.30;99.90
3942;DHT22;1985;48.592;8.850;2023-02-17T15:01:16;12.30;99.90
3942;DHT22;1985;48.592;8.850;2023-02-17T15:03:42;12.20;99.90
3942;DHT22;1985;48.592;8.850;2023-02-17T15:06:50;12.10;99.90
3942;DHT22;1985;48.592;8.850;2023-02-17T15:09:17;12.00;99.90
3942;DHT22;1985;48.592;8.850;2023-02-17T15:11:43;12.00;99.90
3942;DHT22;1985;48.592;8.850;2023-02-17T15:14:15;12.00;99.90
3942;DHT22;1985;48.592;8.850;2023-02-17T15:16:42;11.90;99.90
3942;DHT22;1985;48.592;8.850;2023-02-17T15:19:09;12.00;99.90
3942;DHT22;1985;48.592;8.850;2023-02-17T15:21:36;12.00;99.90
3942;DHT22;1985;48.592;8.850;2023-02-17T15:24:11;12.00;99.90
3942;DHT22;1985;48.592;8.850;2023-02-17T15:26:38;12.10;99.90
3942;DHT22;1985;48.592;8.850;2023-02-17T15:29:04;12.00;99.90
3942;DHT22;1985;48.592;8.850;2023-02-17T15:31:31;12.00;99.90
3942;DHT22;1985;48.592;8.850;2023-02-17T15:33:59;11.90;99.90
3942;DHT22;1985;48.592;8.850;2023-02-17T15:36:26;11.90;99.90
3942;DHT22;1985;48.592;8.850;2023-02-17T15:38:52;11.90;99.90
3942;DHT22;1985;48.592;8.850;2023-02-17T15:41:27;11.90;99.90
3942;DHT22;1985;48.592;8.850;2023-02-17T15:43:54;12.00;99.90
3942;DHT22;1985;48.592;8.850;2023-02-17T15:46:24;12.00;99.90
3942;DHT22;1985;48.592;8.850;2023-02-17T15:48:50;12.00;99.90
3942;DHT22;1985;48.592;8.850;2023-02-17T15:51:17;12.00;99.90
3942;DHT22;1985;48.592;8.850;2023-02-17T15:53:44;12.00;99.90
3942;DHT22;1985;48.592;8.850;2023-02-17T15:56:12;12.00;99.90
3942;DHT22;1985;48.592;8.850;2023-02-17T15:58:39;12.00;99.90
3942;DHT22;1985;48.592;8.850;2023-02-17T16:01:05;12.10;99.90
3942;DHT22;1985;48.592;8.850;2023-02-17T16:03:30;12.10;99.90
3942;DHT22;1985;48.592;8.850;2023-02-17T16:05:56;12.10;99.90
3942;DHT22;1985;48.592;8.850;2023-02-17T16:08:22;12.20;99.90
3942;DHT22;1985;48.592;8.850;2023-02-17T16:10:47;12.20;99.90
3942;DHT22;1985;48.592;8.850;2023-02-17T16:13:15;12.20;99.90
3942;DHT22;1985;48.592;8.850;2023-02-17T16:15:43;12.20;99.90
3942;DHT22;1985;48.592;8.850;2023-02-17T16:18:21;12.20;99.90
3942;DHT22;1985;48.592;8.850;2023-02-17T16:20:48;12.10;99.90
3942;DHT22;1985;48.592;8.850;2023-02-17T16:23:14;12.10;99.90
3942;DHT22;1985;48.592;8.850;2023-02-17T16:25:42;12.10;99.90
3942;DHT22;1985;48.592;8.850;2023-02-17T16:28:18;12.20;99.90
3942;DHT22;1985;48.592;8.850;2023-02-17T16:30:45;12.20;99.90
3942;DHT22;1985;48.592;8.850;2023-02-17T16:33:12;12.20;99.90
3942;DHT22;1985;48.592;8.850;2023-02-17T16:35:38;12.10;99.90
3942;DHT22;1985;48.592;8.850;2023-02-17T16:38:07;12.10;99.90
3942;DHT22;1985;48.592;8.850;2023-02-17T16:40:35;12.10;99.90
3942;DHT22;1985;48.592;8.850;2023-02-17T16:43:02;12.10;99.90
3942;DHT22;1985;48.592;8.850;2023-02-17T16:45:30;12.10;99.90
3942;DHT22;1985;48.592;8.850;2023-02-17T16:47:58;12.10;99.90
3942;DHT22;1985;48.592;8.850;2023-02-17T16:52:51;12.10;99.90
3942;DHT22;1985;48.592;8.850;2023-02-17T16:55:19;12.10;99.90
3942;DHT22;1985;48.592;8.850;2023-02-17T16:57:45;12.10;99.90
3942;DHT22;1985;48.592;8.850;2023-02-17T17:00:16;12.10;99.90
3942;DHT22;1985;48.592;8.850;2023-02-17T17:02:43;12.10;99.90
3942;DHT22;1985;48.592;8.850;2023-02-17T17:05:09;12.10;99.90
3942;DHT22;1985;48.592;8.850;2023-02-17T17:07:37;12.10;99.90
3942;DHT22;1985;48.592;8.850;2023-02-17T17:10:04;12.20;99.90
3942;DHT22;1985;48.592;8.850;2023-02-17T17:12:30;12.10;99.90
3942;DHT22;1985;48.592;8.850;2023-02-17T17:14:55;12.10;99.90
3942;DHT22;1985;48.592;8.850;2023-02-17T17:17:21;12.10;99.90
3942;DHT22;1985;48.592;8.850;2023-02-17T17:19:46;12.00;99.90
3942;DHT22;1985;48.592;8.850;2023-02-17T17:22:12;12.10;99.90
3942;DHT22;1985;48.592;8.850;2023-02-17T17:24:38;12.10;99.90
3942;DHT22;1985;48.592;8.850;2023-02-17T17:27:04;12.00;99.90
3942;DHT22;1985;48.592;8.850;2023-02-17T17:29:30;12.00;99.90
3942;DHT22;1985;48.592;8.850;2023-02-17T17:31:56;11.90;99.90
3942;DHT22;1985;48.592;8.850;2023-02-17T17:34:21;11.90;99.90
3942;DHT22;1985;48.592;8.850;2023-02-17T17:36:47;11.90;99.90
3942;DHT22;1985;48.592;8.850;2023-02-17T17:39:15;11.90;99.90
3942;DHT22;1985;48.592;8.850;2023-02-17T17:41:41;11.80;99.90
3942;DHT22;1985;48.592;8.850;2023-02-17T17:44:07;11.80;99.90
3942;DHT22;1985;48.592;8.850;2023-02-17T17:46:35;11.80;99.90
3942;DHT22;1985;48.592;8.850;2023-02-17T17:49:01;11.80;99.90
3942;DHT22;1985;48.592;8.850;2023-02-17T17:51:30;11.70;99.90
3942;DHT22;1985;48.592;8.850;2023-02-17T17:53:56;11.80;99.90
3942;DHT22;1985;48.592;8.850;2023-02-17T17:56:33;11.80;99.90
3942;DHT22;1985;48.592;8.850;2023-02-17T17:59:00;11.70;99.90
3942;DHT22;1985;48.592;8.850;2023-02-17T18:01:26;11.70;99.90
3942;DHT22;1985;48.592;8.850;2023-02-17T18:03:52;11.70;99.90
3942;DHT22;1985;48.592;8.850;2023-02-17T18:06:24;11.80;99.90